createdAt,value
2018-11-05T00:01:46.935Z,98.10
2018-11-05T00:04:15.356Z,98.30
2018-11-05T00:06:43.783Z,98.10
2018-11-05T00:09:13.200Z,97.60
2018-11-05T00:11:41.573Z,97.70
2018-11-05T00:14:09.960Z,97.30
2018-11-05T00:16:38.352Z,97.10
2018-11-05T00:19:07.190Z,97.00
2018-11-05T00:21:35.571Z,97.00
2018-11-05T00:24:04.076Z,97.20
2018-11-05T00:26:32.458Z,97.70
2018-11-05T00:29:00.962Z,97.10
2018-11-05T00:31:29.423Z,97.50
2018-11-05T00:33:57.848Z,97.10
2018-11-05T00:36:26.286Z,96.70
2018-11-05T00:38:54.768Z,96.60
2018-11-05T00:41:23.137Z,96.40
2018-11-05T00:43:51.554Z,96.40
2018-11-05T00:46:20.019Z,96.40
2018-11-05T00:48:48.490Z,96.70
2018-11-05T00:51:16.940Z,96.70
2018-11-05T00:53:45.355Z,96.80
2018-11-05T00:56:13.809Z,96.70
2018-11-05T00:58:42.225Z,96.50
2018-11-05T01:01:10.754Z,96.60
2018-11-05T01:03:39.452Z,95.90
2018-11-05T01:06:07.893Z,95.80
2018-11-05T01:08:36.304Z,96.00
2018-11-05T01:11:04.875Z,96.50
2018-11-05T01:13:33.326Z,96.70
2018-11-05T01:16:01.786Z,97.10
2018-11-05T01:18:30.318Z,97.80
2018-11-05T01:20:58.789Z,98.00
2018-11-05T01:23:27.275Z,98.20
2018-11-05T01:25:55.750Z,98.20
2018-11-05T01:28:24.248Z,98.10
2018-11-05T01:30:52.693Z,98.10
2018-11-05T01:33:21.144Z,98.10
2018-11-05T01:35:49.673Z,98.10
2018-11-05T01:38:18.146Z,98.00
2018-11-05T01:40:46.522Z,97.80
2018-11-05T01:43:14.986Z,97.70
2018-11-05T01:45:43.404Z,97.50
2018-11-05T01:48:11.918Z,97.20
2018-11-05T01:50:40.416Z,97.20
2018-11-05T01:53:08.893Z,97.50
2018-11-05T01:55:37.376Z,97.70
2018-11-05T01:58:06.223Z,97.50
2018-11-05T02:00:34.607Z,97.40
2018-11-05T02:03:03.063Z,97.20
2018-11-05T02:05:31.450Z,97.10
2018-11-05T02:07:59.890Z,97.00
2018-11-05T02:10:28.330Z,96.70
2018-11-05T02:12:56.924Z,96.90
2018-11-05T02:15:25.439Z,96.90
2018-11-05T02:17:53.898Z,97.20
2018-11-05T02:20:22.321Z,97.00
2018-11-05T02:22:50.767Z,97.00
2018-11-05T02:25:19.195Z,96.80
2018-11-05T02:27:47.628Z,96.80
2018-11-05T02:30:17.576Z,97.40
2018-11-05T02:32:46.421Z,97.10
2018-11-05T02:35:15.543Z,97.20
2018-11-05T02:37:44.622Z,97.70
2018-11-05T02:40:15.129Z,97.80
2018-11-05T02:42:44.270Z,97.90
2018-11-05T02:45:13.741Z,98.20
2018-11-05T02:47:42.192Z,98.10
2018-11-05T02:50:11.617Z,97.90
2018-11-05T02:52:40.997Z,97.70
2018-11-05T02:55:09.721Z,97.40
2018-11-05T02:57:38.241Z,97.70
2018-11-05T03:00:11.546Z,97.70
2018-11-05T03:02:40.486Z,97.50
2018-11-05T03:05:10.870Z,97.60
2018-11-05T03:07:39.300Z,97.60
2018-11-05T03:10:08.822Z,97.60
2018-11-05T03:12:37.389Z,97.80
2018-11-05T03:15:07.249Z,98.00
2018-11-05T03:17:35.721Z,98.10
2018-11-05T03:20:04.537Z,97.80
2018-11-05T03:22:33.018Z,97.60
2018-11-05T03:25:01.513Z,97.90
2018-11-05T03:27:29.934Z,97.80
2018-11-05T03:29:58.394Z,97.70
2018-11-05T03:32:26.785Z,98.00
2018-11-05T03:34:55.301Z,97.70
2018-11-05T03:37:23.670Z,98.00
2018-11-05T03:39:52.297Z,98.00
2018-11-05T03:42:20.804Z,98.10
2018-11-05T03:44:49.261Z,97.80
2018-11-05T03:47:17.664Z,97.90
2018-11-05T03:49:46.182Z,98.10
2018-11-05T03:52:14.570Z,98.00
2018-11-05T03:54:43.009Z,97.90
2018-11-05T03:57:11.366Z,98.30
2018-11-05T03:59:39.804Z,98.60
2018-11-05T04:02:08.246Z,98.80
2018-11-05T04:04:36.854Z,98.70
2018-11-05T04:07:05.377Z,98.60
2018-11-05T04:09:33.714Z,98.50
2018-11-05T04:12:02.818Z,98.50
2018-11-05T04:14:31.265Z,98.50
2018-11-05T04:16:59.786Z,98.30
2018-11-05T04:19:28.271Z,98.30
2018-11-05T04:21:56.863Z,98.30
2018-11-05T04:24:25.327Z,98.50
2018-11-05T04:26:53.772Z,98.50
2018-11-05T04:29:22.167Z,98.60
2018-11-05T04:31:50.532Z,98.70
2018-11-05T04:34:18.990Z,98.50
2018-11-05T04:36:47.457Z,98.40
2018-11-05T04:39:16.413Z,98.20
2018-11-05T04:41:44.855Z,98.00
2018-11-05T04:44:13.294Z,97.90
2018-11-05T04:46:41.686Z,97.90
2018-11-05T04:49:10.378Z,97.90
2018-11-05T04:51:38.791Z,98.50
2018-11-05T04:54:07.415Z,98.70
2018-11-05T04:56:35.818Z,98.80
2018-11-05T04:59:04.269Z,98.70
2018-11-05T05:01:32.707Z,98.80
2018-11-05T05:04:01.201Z,98.70
2018-11-05T05:06:29.618Z,98.80
2018-11-05T05:08:58.056Z,98.60
2018-11-05T05:11:26.492Z,98.30
2018-11-05T05:13:54.982Z,98.10
2018-11-05T05:16:23.573Z,97.90
2018-11-05T05:18:52.047Z,98.20
2018-11-05T05:21:20.575Z,97.70
2018-11-05T05:23:48.973Z,97.80
2018-11-05T05:26:17.516Z,98.00
2018-11-05T05:28:45.934Z,97.80
2018-11-05T05:31:14.366Z,97.70
2018-11-05T05:33:42.920Z,97.30
2018-11-05T05:36:11.512Z,97.30
2018-11-05T05:38:40.010Z,97.40
2018-11-05T05:41:08.522Z,97.40
2018-11-05T05:43:37.081Z,97.40
2018-11-05T05:46:06.145Z,97.10
2018-11-05T05:48:34.616Z,97.30
2018-11-05T05:51:03.077Z,97.40
2018-11-05T05:53:31.581Z,97.50
2018-11-05T05:56:00.001Z,97.80
2018-11-05T05:58:28.610Z,97.70
2018-11-05T06:00:57.088Z,97.60
2018-11-05T06:03:25.637Z,97.60
2018-11-05T06:05:54.111Z,97.60
2018-11-05T06:08:22.783Z,97.50
2018-11-05T06:10:51.318Z,97.20
2018-11-05T06:13:19.700Z,97.60
2018-11-05T06:15:48.166Z,97.50
2018-11-05T06:18:16.761Z,97.50
2018-11-05T06:20:45.175Z,97.20
2018-11-05T06:23:13.581Z,97.10
2018-11-05T06:25:42.036Z,97.20
2018-11-05T06:28:10.390Z,97.30
2018-11-05T06:30:38.814Z,97.00
2018-11-05T06:33:07.210Z,96.90
2018-11-05T06:35:35.702Z,97.00
2018-11-05T06:38:04.157Z,96.90
2018-11-05T06:40:32.560Z,96.90
2018-11-05T06:43:00.980Z,97.20
2018-11-05T06:45:29.660Z,97.40
2018-11-05T06:47:58.253Z,97.30
2018-11-05T06:50:26.790Z,97.30
2018-11-05T06:52:55.222Z,97.20
2018-11-05T06:55:23.817Z,97.10
2018-11-05T06:57:52.400Z,96.80
2018-11-05T07:00:22.206Z,96.80
2018-11-05T07:02:51.018Z,97.00
2018-11-05T07:05:19.564Z,97.30
2018-11-05T07:07:48.027Z,97.30
2018-11-05T07:10:17.379Z,97.40
2018-11-05T07:12:46.070Z,97.50
2018-11-05T07:15:15.705Z,97.60
2018-11-05T07:17:45.159Z,97.80
2018-11-05T07:20:14.896Z,97.80
2018-11-05T07:22:44.002Z,98.10
2018-11-05T07:25:13.547Z,98.00
2018-11-05T07:27:42.196Z,98.00
2018-11-05T07:30:14.023Z,98.00
2018-11-05T07:32:42.766Z,98.00
2018-11-05T07:35:12.982Z,97.90
2018-11-05T07:37:41.854Z,98.10
2018-11-05T07:40:11.778Z,98.20
2018-11-05T07:42:40.662Z,98.60
2018-11-05T07:45:11.495Z,98.20
2018-11-05T07:47:39.916Z,98.50
2018-11-05T07:50:11.083Z,98.60
2018-11-05T07:52:40.018Z,98.40
2018-11-05T07:55:10.507Z,98.50
2018-11-05T07:57:39.732Z,98.20
2018-11-05T08:00:17.206Z,98.10
2018-11-05T08:02:46.598Z,98.00
2018-11-05T08:05:16.213Z,98.00
2018-11-05T08:07:44.794Z,97.80
2018-11-05T08:10:13.376Z,97.50
2018-11-05T08:12:42.113Z,97.40
2018-11-05T08:15:13.822Z,97.20
2018-11-05T08:17:43.350Z,96.90
2018-11-05T08:20:12.460Z,97.30
2018-11-05T08:22:40.879Z,97.40
2018-11-05T08:25:10.657Z,97.80
2018-11-05T08:27:39.746Z,97.30
2018-11-05T08:30:13.963Z,97.60
2018-11-05T08:32:42.752Z,97.10
2018-11-05T08:35:11.946Z,97.10
2018-11-05T08:37:40.940Z,97.30
2018-11-05T08:40:11.379Z,97.20
2018-11-05T08:42:40.456Z,97.20
2018-11-05T08:45:09.183Z,97.10
2018-11-05T08:47:37.574Z,97.10
2018-11-05T08:50:07.336Z,97.00
2018-11-05T08:52:35.986Z,97.10
2018-11-05T08:55:04.967Z,96.80
2018-11-05T08:57:33.463Z,96.90
2018-11-05T09:00:02.500Z,96.70
2018-11-05T09:02:31.059Z,96.60
2018-11-05T09:04:59.590Z,96.80
2018-11-05T09:07:28.135Z,96.80
2018-11-05T09:09:56.556Z,96.90
2018-11-05T09:12:25.128Z,96.80
2018-11-05T09:14:53.546Z,96.80
2018-11-05T09:17:21.954Z,96.80
2018-11-05T09:19:50.386Z,96.90
2018-11-05T09:22:19.179Z,96.60
2018-11-05T09:24:47.609Z,96.90
2018-11-05T09:27:16.066Z,96.90
2018-11-05T09:29:44.557Z,97.00
2018-11-05T09:32:13.026Z,97.00
2018-11-05T09:34:41.478Z,97.00
2018-11-05T09:37:09.950Z,97.10
2018-11-05T09:39:38.384Z,97.10
2018-11-05T09:42:07.159Z,97.20
2018-11-05T09:44:35.675Z,97.10
2018-11-05T09:47:04.416Z,97.00
2018-11-05T09:49:32.823Z,97.00
2018-11-05T09:52:01.505Z,97.00
2018-11-05T09:54:29.927Z,97.00
2018-11-05T09:56:58.345Z,96.80
2018-11-05T09:59:27.004Z,96.90
2018-11-05T10:01:55.534Z,96.90
2018-11-05T10:04:24.069Z,96.90
2018-11-05T10:06:52.607Z,96.90
2018-11-05T10:09:21.146Z,96.90
2018-11-05T10:11:49.599Z,96.70
2018-11-05T10:14:18.101Z,96.90
2018-11-05T10:16:46.537Z,96.70
2018-11-05T10:19:14.994Z,96.70
2018-11-05T10:21:43.394Z,96.70
2018-11-05T10:24:11.861Z,96.80
2018-11-05T10:26:40.846Z,96.80
2018-11-05T10:29:09.285Z,96.70
2018-11-05T10:31:37.655Z,96.70
2018-11-05T10:34:06.318Z,96.70
2018-11-05T10:36:34.761Z,96.30
2018-11-05T10:39:03.250Z,96.60
2018-11-05T10:41:31.613Z,96.70
2018-11-05T10:44:00.045Z,96.70
2018-11-05T10:46:28.479Z,96.20
2018-11-05T10:48:56.953Z,96.50
2018-11-05T10:51:25.371Z,96.60
2018-11-05T10:53:53.981Z,96.60
2018-11-05T10:56:22.431Z,96.70
2018-11-05T10:58:50.814Z,96.70
2018-11-05T11:01:24.571Z,96.50
2018-11-05T11:03:58.491Z,96.50
2018-11-05T11:06:27.050Z,96.30
2018-11-05T11:08:55.464Z,96.60
2018-11-05T11:11:23.872Z,96.60
2018-11-05T11:13:52.302Z,96.20
2018-11-05T11:16:20.790Z,96.10
2018-11-05T11:18:49.230Z,96.00
2018-11-05T11:21:17.663Z,95.90
2018-11-05T11:23:46.106Z,96.00
2018-11-05T11:26:14.473Z,96.10
2018-11-05T11:28:42.948Z,96.30
2018-11-05T11:31:11.525Z,96.20
2018-11-05T11:33:39.972Z,96.20
2018-11-05T11:36:08.413Z,96.00
2018-11-05T11:38:36.853Z,96.10
2018-11-05T11:41:05.282Z,95.50
2018-11-05T11:43:33.742Z,95.30
2018-11-05T11:46:02.179Z,96.20
2018-11-05T11:48:30.850Z,95.70
2018-11-05T11:50:59.266Z,95.60
2018-11-05T11:53:27.785Z,95.80
2018-11-05T11:55:56.382Z,95.30
2018-11-05T11:58:24.793Z,94.90
2018-11-05T12:00:53.214Z,95.00
2018-11-05T12:03:21.684Z,95.30
2018-11-05T12:05:50.166Z,95.30
2018-11-05T12:08:18.801Z,95.00
2018-11-05T12:10:47.216Z,94.80
2018-11-05T12:13:15.676Z,94.70
2018-11-05T12:15:44.043Z,94.60
2018-11-05T12:18:12.532Z,94.60
2018-11-05T12:20:40.957Z,94.30
2018-11-05T12:23:09.444Z,94.30
2018-11-05T12:25:37.817Z,94.20
2018-11-05T12:28:06.411Z,94.20
2018-11-05T12:30:34.804Z,94.40
2018-11-05T12:33:03.303Z,94.10
2018-11-05T12:35:31.680Z,93.80
2018-11-05T12:38:00.120Z,94.20
2018-11-05T12:40:28.748Z,93.70
2018-11-05T12:42:57.200Z,93.90
2018-11-05T12:45:25.609Z,93.70
2018-11-05T12:47:54.013Z,93.80
2018-11-05T12:50:23.624Z,93.60
2018-11-05T12:52:53.433Z,93.80
2018-11-05T12:55:21.845Z,93.90
2018-11-05T12:57:50.327Z,93.30
2018-11-05T13:00:20.652Z,93.20
2018-11-05T13:02:54.406Z,93.20
2018-11-05T13:05:23.591Z,93.00
2018-11-05T13:07:52.108Z,92.80
2018-11-05T13:10:21.036Z,92.60
2018-11-05T13:12:49.502Z,92.40
2018-11-05T13:15:18.040Z,92.40
2018-11-05T13:17:46.655Z,92.70
2018-11-05T13:20:17.284Z,92.80
2018-11-05T13:22:46.222Z,93.70
2018-11-05T13:25:15.144Z,93.60
2018-11-05T13:27:46.930Z,94.60
2018-11-05T13:30:15.907Z,93.00
2018-11-05T13:32:44.683Z,92.60
2018-11-05T13:35:16.516Z,92.30
2018-11-05T13:37:45.497Z,92.40
2018-11-05T13:40:18.009Z,92.50
2018-11-05T13:42:46.888Z,92.20
2018-11-05T13:45:16.094Z,92.50
2018-11-05T13:47:45.368Z,92.10
2018-11-05T13:50:13.892Z,92.10
2018-11-05T13:52:42.613Z,91.80
2018-11-05T13:55:13.014Z,91.10
2018-11-05T13:57:42.614Z,90.20
2018-11-05T14:00:13.159Z,90.70
2018-11-05T14:02:41.662Z,89.50
2018-11-05T14:05:11.438Z,90.50
2018-11-05T14:07:40.230Z,91.00
2018-11-05T14:10:11.221Z,90.30
2018-11-05T14:12:39.607Z,90.10
2018-11-05T14:15:09.111Z,88.70
2018-11-05T14:17:37.653Z,89.00
2018-11-05T14:20:06.900Z,90.30
2018-11-05T14:22:35.434Z,90.40
2018-11-05T14:25:03.963Z,90.80
2018-11-05T14:27:32.700Z,91.00
2018-11-05T14:30:01.643Z,90.90
2018-11-05T14:32:29.868Z,90.40
2018-11-05T14:34:58.273Z,90.20
2018-11-05T14:37:27.086Z,90.50
2018-11-05T14:39:55.554Z,90.70
2018-11-05T14:42:24.035Z,91.10
2018-11-05T14:44:52.622Z,91.20
2018-11-05T14:47:21.082Z,91.10
2018-11-05T14:49:49.448Z,90.90
2018-11-05T14:52:17.827Z,90.50
2018-11-05T14:54:46.347Z,90.70
2018-11-05T14:57:15.061Z,91.50
2018-11-05T14:59:43.678Z,91.70
2018-11-05T15:02:17.466Z,92.10
2018-11-05T15:04:45.833Z,91.10
2018-11-05T15:07:14.260Z,90.10
2018-11-05T15:09:43.036Z,88.40
2018-11-05T15:12:11.449Z,88.90
2018-11-05T15:14:39.928Z,89.30
2018-11-05T15:17:08.652Z,90.20
2018-11-05T15:19:37.572Z,90.70
2018-11-05T15:22:05.864Z,91.10
2018-11-05T15:24:34.300Z,91.40
2018-11-05T15:27:02.827Z,91.60
2018-11-05T15:29:31.329Z,91.80
2018-11-05T15:31:59.748Z,91.70
2018-11-05T15:34:28.195Z,91.80
2018-11-05T15:36:56.664Z,91.90
2018-11-05T15:39:25.120Z,92.00
2018-11-05T15:41:53.655Z,92.00
2018-11-05T15:44:22.130Z,91.80
2018-11-05T15:46:50.550Z,91.70
2018-11-05T15:49:19.038Z,91.60
2018-11-05T15:51:47.602Z,91.60
2018-11-05T15:54:16.146Z,91.60
2018-11-05T15:56:44.766Z,91.60
2018-11-05T15:59:13.136Z,91.50
2018-11-05T16:01:41.576Z,91.80
2018-11-05T16:04:10.006Z,91.60
2018-11-05T16:06:38.612Z,91.00
2018-11-05T16:09:08.147Z,90.90
2018-11-05T16:11:36.620Z,90.90
2018-11-05T16:14:06.094Z,91.30
2018-11-05T16:16:34.672Z,91.00
2018-11-05T16:19:03.041Z,91.00
2018-11-05T16:21:31.561Z,90.70
2018-11-05T16:23:59.994Z,90.90
2018-11-05T16:26:28.425Z,90.90
2018-11-05T16:28:56.903Z,90.90
2018-11-05T16:31:25.311Z,90.90
2018-11-05T16:33:53.762Z,91.10
2018-11-05T16:36:22.212Z,91.10
2018-11-05T16:38:50.730Z,91.20
2018-11-05T16:41:19.120Z,91.30
2018-11-05T16:43:47.583Z,91.20
2018-11-05T16:46:16.015Z,91.20
2018-11-05T16:48:44.416Z,91.30
2018-11-05T16:51:13.183Z,91.20
2018-11-05T16:53:41.673Z,91.40
2018-11-05T16:56:10.249Z,91.30
2018-11-05T16:58:38.741Z,91.30
2018-11-05T17:01:07.932Z,91.40
2018-11-05T17:03:36.282Z,91.40
2018-11-05T17:06:04.769Z,91.50
2018-11-05T17:08:33.213Z,91.50
2018-11-05T17:11:01.729Z,91.80
2018-11-05T17:13:30.194Z,92.00
2018-11-05T17:15:58.770Z,92.20
2018-11-05T17:18:28.926Z,92.20
2018-11-05T17:20:57.376Z,92.40
2018-11-05T17:23:25.784Z,92.50
2018-11-05T17:25:54.260Z,92.60
2018-11-05T17:28:22.693Z,92.80
2018-11-05T17:30:51.504Z,92.70
2018-11-05T17:33:19.954Z,92.80
2018-11-05T17:35:48.396Z,93.10
2018-11-05T17:38:16.808Z,93.40
2018-11-05T17:40:45.284Z,93.80
2018-11-05T17:43:13.698Z,93.80
2018-11-05T17:45:42.198Z,93.50
2018-11-05T17:48:10.696Z,93.30
2018-11-05T17:50:39.220Z,93.70
2018-11-05T17:53:07.850Z,94.00
2018-11-05T17:55:36.368Z,94.10
2018-11-05T17:58:04.859Z,94.30
2018-11-05T18:00:33.307Z,94.40
2018-11-05T18:03:01.676Z,94.50
2018-11-05T18:05:30.143Z,94.40
2018-11-05T18:07:58.547Z,94.60
2018-11-05T18:10:27.002Z,94.60
2018-11-05T18:12:55.475Z,94.50
2018-11-05T18:15:24.024Z,94.60
2018-11-05T18:17:52.651Z,94.80
2018-11-05T18:20:21.105Z,94.80
2018-11-05T18:22:49.691Z,94.80
2018-11-05T18:25:19.643Z,94.90
2018-11-05T18:27:48.157Z,94.70
2018-11-05T18:30:17.222Z,94.70
2018-11-05T18:32:45.688Z,94.70
2018-11-05T18:35:14.801Z,94.80
2018-11-05T18:37:44.376Z,94.80
2018-11-05T18:40:13.912Z,94.90
2018-11-05T18:42:42.930Z,95.00
2018-11-05T18:45:11.885Z,95.00
2018-11-05T18:47:40.540Z,94.80
2018-11-05T18:50:10.650Z,94.80
2018-11-05T18:52:39.652Z,94.30
2018-11-05T18:55:09.770Z,94.10
2018-11-05T18:57:38.490Z,94.50
2018-11-05T19:00:18.874Z,94.30
2018-11-05T19:02:47.524Z,94.40
2018-11-05T19:05:16.508Z,94.30
2018-11-05T19:07:46.103Z,94.10
2018-11-05T19:10:14.619Z,94.10
2018-11-05T19:12:43.048Z,93.90
2018-11-05T19:15:12.845Z,93.80
2018-11-05T19:17:41.810Z,93.80
2018-11-05T19:20:10.329Z,93.80
2018-11-05T19:22:39.777Z,93.60
2018-11-05T19:25:09.652Z,93.20
2018-11-05T19:27:38.558Z,92.90
2018-11-05T19:30:12.115Z,92.70
2018-11-05T19:32:40.790Z,92.60
2018-11-05T19:35:10.395Z,92.60
2018-11-05T19:37:38.798Z,92.70
2018-11-05T19:40:08.803Z,92.70
2018-11-05T19:42:37.384Z,92.60
2018-11-05T19:45:08.263Z,92.50
2018-11-05T19:47:36.841Z,92.40
2018-11-05T19:50:07.113Z,92.30
2018-11-05T19:52:35.642Z,92.10
2018-11-05T19:55:04.731Z,92.10
2018-11-05T19:57:33.216Z,92.10
2018-11-05T20:00:01.599Z,92.50
2018-11-05T20:02:30.738Z,92.30
2018-11-05T20:04:59.662Z,92.20
2018-11-05T20:07:28.751Z,91.90
2018-11-05T20:09:57.189Z,91.50
2018-11-05T20:12:25.752Z,91.70
2018-11-05T20:14:54.220Z,91.90
2018-11-05T20:17:22.902Z,91.30
2018-11-05T20:19:51.411Z,91.70
2018-11-05T20:22:20.075Z,91.60
2018-11-05T20:24:48.672Z,91.80
2018-11-05T20:27:17.123Z,91.90
2018-11-05T20:29:45.576Z,91.80
2018-11-05T20:32:14.351Z,91.90
2018-11-05T20:34:42.860Z,91.20
2018-11-05T20:37:11.366Z,91.30
2018-11-05T20:39:39.878Z,91.30
2018-11-05T20:42:08.423Z,91.20
2018-11-05T20:44:36.946Z,91.20
2018-11-05T20:47:05.671Z,90.70
2018-11-05T20:49:34.134Z,90.90
2018-11-05T20:52:02.692Z,91.20
2018-11-05T20:54:31.105Z,91.40
2018-11-05T20:56:59.615Z,91.20
2018-11-05T20:59:28.027Z,90.80
2018-11-05T21:01:56.445Z,90.80
2018-11-05T21:04:24.871Z,90.40
2018-11-05T21:06:53.390Z,90.40
2018-11-05T21:09:21.853Z,89.90
2018-11-05T21:11:50.371Z,90.40
2018-11-05T21:14:18.838Z,90.70
2018-11-05T21:16:47.524Z,90.90
2018-11-05T21:19:16.305Z,91.00
2018-11-05T21:21:45.006Z,90.30
2018-11-05T21:24:13.516Z,90.70
2018-11-05T21:26:42.005Z,90.00
2018-11-05T21:29:10.431Z,89.40
2018-11-05T21:31:38.966Z,89.30
2018-11-05T21:34:07.441Z,90.10
2018-11-05T21:36:35.987Z,90.30
2018-11-05T21:39:07.664Z,89.90
2018-11-05T21:41:36.112Z,90.10
2018-11-05T21:44:04.954Z,90.20
2018-11-05T21:46:33.434Z,89.60
2018-11-05T21:49:01.879Z,90.10
2018-11-05T21:51:30.437Z,89.50
2018-11-05T21:53:59.120Z,89.70
2018-11-05T21:56:27.718Z,90.00
2018-11-05T21:58:56.468Z,90.20
2018-11-05T22:01:25.977Z,90.30
2018-11-05T22:03:55.007Z,90.00
2018-11-05T22:06:23.822Z,90.40
2018-11-05T22:08:52.331Z,90.60
2018-11-05T22:11:20.816Z,90.60
2018-11-05T22:13:49.242Z,90.50
2018-11-05T22:16:17.723Z,90.70
2018-11-05T22:18:46.120Z,90.80
2018-11-05T22:21:14.606Z,90.90
2018-11-05T22:23:43.047Z,90.80
2018-11-05T22:26:11.544Z,90.60
2018-11-05T22:28:39.990Z,90.60
2018-11-05T22:31:08.448Z,90.80
2018-11-05T22:33:36.987Z,90.80
2018-11-05T22:36:05.734Z,90.60
2018-11-05T22:38:34.238Z,91.00
2018-11-05T22:41:02.658Z,91.00
2018-11-05T22:43:31.196Z,91.10
2018-11-05T22:45:59.777Z,91.20
2018-11-05T22:48:28.309Z,91.00
2018-11-05T22:50:56.697Z,90.70
2018-11-05T22:53:25.142Z,90.90
2018-11-05T22:55:53.558Z,90.90
2018-11-05T22:58:22.025Z,91.00
2018-11-05T23:00:55.637Z,91.60
2018-11-05T23:03:27.126Z,91.00
2018-11-05T23:05:55.821Z,90.70
2018-11-05T23:08:24.350Z,90.40
2018-11-05T23:10:52.842Z,90.40
2018-11-05T23:13:21.406Z,90.70
2018-11-05T23:15:49.868Z,90.40
2018-11-05T23:18:18.239Z,90.50
2018-11-05T23:20:46.690Z,90.70
2018-11-05T23:23:15.130Z,90.80
2018-11-05T23:25:43.594Z,90.90
2018-11-05T23:28:12.005Z,90.70
2018-11-05T23:30:40.457Z,90.80
2018-11-05T23:33:09.149Z,90.70
2018-11-05T23:35:37.770Z,89.90
2018-11-05T23:38:06.734Z,90.40
2018-11-05T23:40:35.230Z,90.50
2018-11-05T23:43:03.880Z,90.20
2018-11-05T23:45:32.318Z,90.20
2018-11-05T23:48:00.806Z,90.20
2018-11-05T23:50:29.210Z,90.20
2018-11-05T23:52:57.681Z,90.90
2018-11-05T23:55:26.131Z,90.60
2018-11-05T23:57:54.594Z,90.60
